createdAt,value
2023-04-18T00:00:46.917Z,10.32
2023-04-18T00:03:53.951Z,12.07
2023-04-18T00:06:57.396Z,12.55
2023-04-18T00:10:00.858Z,12.88
2023-04-18T00:13:29.264Z,12.80
2023-04-18T00:16:34.329Z,11.85
2023-04-18T00:19:44.021Z,13.70
2023-04-18T00:22:47.455Z,10.93
2023-04-18T00:25:57.119Z,12.38
2023-04-18T00:29:00.612Z,12.93
2023-04-18T00:32:10.403Z,14.75
2023-04-18T00:35:16.291Z,15.27
2023-04-18T00:38:22.687Z,12.90
2023-04-18T00:41:28.390Z,13.82
2023-04-18T00:44:33.025Z,16.48
2023-04-18T00:47:36.969Z,13.88
2023-04-18T00:50:41.442Z,14.88
2023-04-18T00:53:46.762Z,11.15
2023-04-18T00:56:50.155Z,11.68
2023-04-18T00:59:53.775Z,11.98
2023-04-18T01:03:00.241Z,10.07
2023-04-18T01:06:04.022Z,9.15
2023-04-18T01:09:12.762Z,7.32
2023-04-18T01:12:16.606Z,7.88
2023-04-18T01:15:20.091Z,14.63
2023-04-18T01:18:23.693Z,10.70
2023-04-18T01:21:34.597Z,14.52
2023-04-18T01:24:39.810Z,10.48
2023-04-18T01:27:52.402Z,9.75
2023-04-18T01:31:21.292Z,7.93
2023-04-18T01:34:24.853Z,7.78
2023-04-18T01:37:28.387Z,7.22
2023-04-18T01:40:32.802Z,9.00
2023-04-18T01:43:36.336Z,7.88
2023-04-18T01:46:41.611Z,5.82
2023-04-18T01:49:49.764Z,7.18
2023-04-18T01:53:18.668Z,7.45
2023-04-18T01:56:22.276Z,7.50
2023-04-18T01:59:25.749Z,7.03
2023-04-18T02:02:29.246Z,7.57
2023-04-18T02:05:32.766Z,7.55
2023-04-18T02:08:36.457Z,7.07
2023-04-18T02:11:42.629Z,7.63
2023-04-18T02:14:46.271Z,4.68
2023-04-18T02:17:51.208Z,4.55
2023-04-18T02:20:54.830Z,5.95
2023-04-18T02:24:24.112Z,5.13
2023-04-18T02:27:35.772Z,4.30
2023-04-18T02:30:42.136Z,4.18
2023-04-18T02:33:48.343Z,3.67
2023-04-18T02:36:51.700Z,2.83
2023-04-18T02:39:55.444Z,2.25
2023-04-18T02:43:09.606Z,3.47
2023-04-18T02:46:13.416Z,3.00
2023-04-18T02:52:34.221Z,1.77
2023-04-18T02:55:38.352Z,1.98
2023-04-18T02:58:41.776Z,2.90
2023-04-18T03:02:17.877Z,2.97
2023-04-18T03:05:27.730Z,3.45
2023-04-18T03:08:34.700Z,3.50
2023-04-18T03:11:41.054Z,1.92
2023-04-18T03:14:46.888Z,2.47
2023-04-18T03:17:56.494Z,1.88
2023-04-18T03:21:06.030Z,2.30
2023-04-18T03:24:12.340Z,2.13
2023-04-18T03:27:23.979Z,2.40
2023-04-18T03:30:46.453Z,1.90
2023-04-18T03:48:08.489Z,1.60
2023-04-18T03:51:35.342Z,1.30
2023-04-18T03:54:39.935Z,1.67
2023-04-18T03:57:43.634Z,1.48
2023-04-18T04:00:55.454Z,2.00
2023-04-18T04:07:45.939Z,1.50
2023-04-18T04:11:03.292Z,1.63
2023-04-18T04:14:31.703Z,2.30
2023-04-18T04:17:54.318Z,2.05
2023-04-18T04:21:01.737Z,2.92
2023-04-18T04:24:18.605Z,2.63
2023-04-18T04:31:25.499Z,1.58
2023-04-18T04:34:42.202Z,1.73
2023-04-18T04:37:48.239Z,2.20
2023-04-18T04:41:01.138Z,2.40
2023-04-18T04:44:06.371Z,4.80
2023-04-18T04:47:17.202Z,2.80
2023-04-18T04:50:20.971Z,2.33
2023-04-18T04:53:25.560Z,2.22
2023-04-18T04:56:29.711Z,5.43
2023-04-18T04:59:36.357Z,2.60
2023-04-18T05:02:39.854Z,2.97
2023-04-18T05:05:43.549Z,4.13
2023-04-18T05:08:50.567Z,5.05
2023-04-18T05:11:55.087Z,3.65
2023-04-18T05:14:58.914Z,5.57
2023-04-18T05:18:02.753Z,3.13
2023-04-18T05:21:10.373Z,3.55
2023-04-18T05:24:20.760Z,2.50
2023-04-18T05:27:48.772Z,1.80
2023-04-18T05:31:04.178Z,2.78
2023-04-18T05:34:07.647Z,1.85
2023-04-18T05:37:27.384Z,3.65
2023-04-18T05:40:36.871Z,3.35
2023-04-18T05:43:54.264Z,3.40
2023-04-18T05:50:44.374Z,2.20
2023-04-18T05:53:50.780Z,2.83
2023-04-18T05:56:58.474Z,3.38
2023-04-18T06:00:13.033Z,3.03
2023-04-18T06:03:43.823Z,2.25
2023-04-18T06:06:47.618Z,3.50
2023-04-18T06:09:54.760Z,2.85
2023-04-18T06:13:16.091Z,3.95
2023-04-18T06:16:19.587Z,3.35
2023-04-18T06:19:41.011Z,3.55
2023-04-18T06:23:10.455Z,2.25
2023-04-18T06:26:14.636Z,2.70
2023-04-18T06:29:43.977Z,3.28
2023-04-18T06:32:48.474Z,1.73
2023-04-18T06:35:55.501Z,1.60
2023-04-18T06:39:03.034Z,3.08
2023-04-18T06:42:31.228Z,2.78
2023-04-18T06:45:42.812Z,3.28
2023-04-18T06:49:12.230Z,2.88
2023-04-18T06:52:17.080Z,2.30
2023-04-18T06:55:46.916Z,1.85
2023-04-18T06:59:13.534Z,2.42
2023-04-18T07:02:44.239Z,1.73
2023-04-18T07:05:47.857Z,2.20
2023-04-18T07:08:53.968Z,2.88
2023-04-18T07:15:37.135Z,2.33
2023-04-18T07:25:50.916Z,6.55
2023-04-18T07:29:04.231Z,3.00
2023-04-18T07:32:33.510Z,2.45
2023-04-18T07:35:41.256Z,2.17
2023-04-18T07:39:18.326Z,2.80
2023-04-18T07:42:24.484Z,2.25
2023-04-18T07:45:37.124Z,2.20
2023-04-18T07:48:52.888Z,1.95
2023-04-18T07:55:35.436Z,2.17
2023-04-18T07:58:43.416Z,2.38
2023-04-18T08:01:53.445Z,2.10
2023-04-18T08:05:22.438Z,1.85
2023-04-18T08:09:28.613Z,2.55
2023-04-18T08:12:47.268Z,1.73
2023-04-18T08:19:15.886Z,1.38
2023-04-18T08:23:05.246Z,2.83
2023-04-18T08:26:15.291Z,1.58
2023-04-18T08:29:23.870Z,2.05
2023-04-18T08:32:30.385Z,2.45
2023-04-18T08:35:45.917Z,3.05
2023-04-18T08:39:09.034Z,2.28
2023-04-18T08:42:23.695Z,2.78
2023-04-18T08:45:29.652Z,2.17
2023-04-18T08:49:03.169Z,3.45
2023-04-18T08:56:18.357Z,2.10
2023-04-18T09:03:08.241Z,2.72
2023-04-18T09:06:39.762Z,1.88
2023-04-18T09:09:52.393Z,2.75
2023-04-18T09:13:00.382Z,2.88
2023-04-18T09:16:15.653Z,3.00
2023-04-18T09:19:24.650Z,3.67
2023-04-18T09:22:49.018Z,3.20
2023-04-18T09:26:37.329Z,2.67
2023-04-18T09:29:51.303Z,3.20
2023-04-18T09:33:03.548Z,2.63
2023-04-18T09:36:19.539Z,2.38
2023-04-18T09:39:53.731Z,5.65
2023-04-18T09:42:58.751Z,2.88
2023-04-18T09:46:23.778Z,2.60
2023-04-18T09:49:28.924Z,3.63
2023-04-18T09:57:51.768Z,3.40
2023-04-18T10:01:31.212Z,3.13
2023-04-18T10:04:38.340Z,3.35
2023-04-18T10:08:07.162Z,2.92
2023-04-18T10:11:37.437Z,3.17
2023-04-18T10:14:46.133Z,2.53
2023-04-18T10:21:05.324Z,2.30
2023-04-18T10:24:29.196Z,4.65
2023-04-18T10:27:51.537Z,3.22
2023-04-18T10:31:05.993Z,3.45
2023-04-18T10:34:09.625Z,5.43
2023-04-18T10:37:22.374Z,4.85
2023-04-18T10:40:43.025Z,4.53
2023-04-18T10:44:08.973Z,4.28
2023-04-18T10:47:22.939Z,4.22
2023-04-18T10:50:27.099Z,4.15
2023-04-18T10:53:31.597Z,4.75
2023-04-18T10:56:35.275Z,5.78
2023-04-18T10:59:59.082Z,4.90
2023-04-18T11:03:03.143Z,5.50
2023-04-18T11:06:08.329Z,5.80
2023-04-18T11:09:16.819Z,3.65
2023-04-18T11:12:23.451Z,4.25
2023-04-18T11:15:29.757Z,3.55
2023-04-18T11:18:43.420Z,3.22
2023-04-18T11:21:47.020Z,2.75
2023-04-18T11:24:50.518Z,3.42
2023-04-18T11:27:55.737Z,3.67
2023-04-18T11:31:00.916Z,3.45
2023-04-18T11:34:54.970Z,3.17
2023-04-18T11:37:59.200Z,3.25
2023-04-18T11:41:05.946Z,2.65
2023-04-18T11:44:09.345Z,2.42
2023-04-18T11:47:32.492Z,2.53
2023-04-18T11:50:38.362Z,2.50
2023-04-18T11:53:42.016Z,4.68
2023-04-18T11:56:49.756Z,4.38
2023-04-18T12:00:01.635Z,3.60
2023-04-18T12:03:19.527Z,6.00
2023-04-18T12:06:23.397Z,5.25
2023-04-18T12:09:30.765Z,3.35
2023-04-18T12:12:37.884Z,3.50
2023-04-18T12:15:45.195Z,4.13
2023-04-18T12:18:48.608Z,3.15
2023-04-18T12:28:55.637Z,6.80
2023-04-18T12:32:31.083Z,6.50
2023-04-18T12:36:19.043Z,5.70
2023-04-18T12:39:26.843Z,5.43
2023-04-18T12:42:30.437Z,7.15
2023-04-18T12:45:33.990Z,10.80
2023-04-18T12:48:37.525Z,12.95
2023-04-18T12:52:06.046Z,13.63
2023-04-18T12:55:16.392Z,18.23
2023-04-18T12:58:21.572Z,22.45
2023-04-18T13:01:36.134Z,25.15
2023-04-18T13:04:42.374Z,19.67
2023-04-18T13:07:50.433Z,22.02
2023-04-18T13:10:58.450Z,19.88
2023-04-18T13:14:07.955Z,21.90
2023-04-18T13:17:15.481Z,23.30
2023-04-18T13:20:22.009Z,22.13
2023-04-18T13:23:27.440Z,23.05
2023-04-18T13:27:03.097Z,22.80
2023-04-18T13:30:07.336Z,20.77
2023-04-18T13:33:11.399Z,24.83
2023-04-18T13:36:18.752Z,22.00
2023-04-18T13:39:25.432Z,26.00
2023-04-18T13:42:32.127Z,24.08
2023-04-18T13:45:35.591Z,22.10
2023-04-18T13:49:04.100Z,21.08
2023-04-18T13:52:07.640Z,18.95
2023-04-18T13:55:13.138Z,15.88
2023-04-18T13:58:18.876Z,18.55
2023-04-18T14:01:22.991Z,17.35
2023-04-18T14:04:32.595Z,19.45
2023-04-18T14:07:37.993Z,23.42
2023-04-18T14:10:41.500Z,28.00
2023-04-18T14:13:44.771Z,33.30
2023-04-18T14:16:58.593Z,34.53
2023-04-18T14:20:27.290Z,30.63
2023-04-18T14:23:31.572Z,32.03
2023-04-18T14:26:34.880Z,32.20
2023-04-18T14:30:03.238Z,34.75
2023-04-18T14:33:07.902Z,33.58
2023-04-18T14:36:11.469Z,32.90
2023-04-18T14:39:15.106Z,33.30
2023-04-18T14:42:21.695Z,32.72
2023-04-18T14:45:25.067Z,37.10
2023-04-18T14:48:31.410Z,34.00
2023-04-18T14:51:34.810Z,37.17
2023-04-18T14:54:59.719Z,37.83
2023-04-18T14:58:28.235Z,38.90
2023-04-18T15:01:34.490Z,36.33
2023-04-18T15:04:38.331Z,39.75
2023-04-18T15:07:54.212Z,42.35
2023-04-18T15:10:57.687Z,40.13
2023-04-18T15:14:07.841Z,41.20
2023-04-18T15:17:14.919Z,41.22
2023-04-18T15:20:23.667Z,47.00
2023-04-18T15:23:55.574Z,48.85
2023-04-18T15:27:01.050Z,42.97
2023-04-18T15:30:05.124Z,44.95
2023-04-18T15:33:14.541Z,39.22
2023-04-18T15:36:23.924Z,43.70
2023-04-18T15:39:27.430Z,41.42
2023-04-18T15:42:39.647Z,44.25
2023-04-18T15:45:45.063Z,41.65
2023-04-18T15:49:37.898Z,45.97
2023-04-18T15:52:47.418Z,43.22
2023-04-18T15:55:54.989Z,43.83
2023-04-18T15:59:01.002Z,45.20
2023-04-18T16:02:10.207Z,38.63
2023-04-18T16:05:15.809Z,32.85
2023-04-18T16:08:19.123Z,21.95
2023-04-18T16:11:47.583Z,20.02
2023-04-18T16:14:51.044Z,15.88
2023-04-18T16:17:55.139Z,11.73
2023-04-18T16:21:05.933Z,42.30
2023-04-18T16:24:17.082Z,54.25
2023-04-18T16:27:20.336Z,52.35
2023-04-18T16:30:29.385Z,47.47
2023-04-18T16:33:35.799Z,49.30
2023-04-18T16:37:04.546Z,48.03
2023-04-18T16:40:10.534Z,49.85
2023-04-18T16:43:15.928Z,47.92
2023-04-18T16:46:19.788Z,47.42
2023-04-18T16:49:24.338Z,49.20
2023-04-18T16:52:27.636Z,40.38
2023-04-18T16:55:31.050Z,39.08
2023-04-18T16:58:34.387Z,35.58
2023-04-18T17:01:37.642Z,36.45
2023-04-18T17:04:41.688Z,32.67
2023-04-18T17:07:46.662Z,32.35
2023-04-18T17:10:55.770Z,25.60
2023-04-18T17:13:58.960Z,22.38
2023-04-18T17:17:05.187Z,20.20
2023-04-18T17:20:09.120Z,21.05
2023-04-18T17:23:12.565Z,18.67
2023-04-18T17:26:16.020Z,18.35
2023-04-18T17:29:19.637Z,17.05
2023-04-18T17:32:26.046Z,14.38
2023-04-18T17:35:29.437Z,14.88
2023-04-18T17:38:33.120Z,10.85
2023-04-18T17:41:40.915Z,10.00
2023-04-18T17:44:44.209Z,31.45
2023-04-18T17:47:47.519Z,30.48
2023-04-18T17:50:50.895Z,26.13
2023-04-18T17:53:54.601Z,23.10
2023-04-18T17:56:58.557Z,27.70
2023-04-18T18:00:02.387Z,33.47
2023-04-18T18:03:16.402Z,33.92
2023-04-18T18:06:20.096Z,36.47
2023-04-18T18:09:23.383Z,35.30
2023-04-18T18:12:26.889Z,34.50
2023-04-18T18:15:30.556Z,34.40
2023-04-18T18:18:33.991Z,35.33
2023-04-18T18:21:37.293Z,34.22
2023-04-18T18:24:40.583Z,31.17
2023-04-18T18:27:43.880Z,32.28
2023-04-18T18:30:47.162Z,33.13
2023-04-18T18:33:50.409Z,31.08
2023-04-18T18:36:54.220Z,31.13
2023-04-18T18:39:57.581Z,31.67
2023-04-18T18:43:01.609Z,31.02
2023-04-18T18:46:04.885Z,34.47
2023-04-18T18:49:08.762Z,34.45
2023-04-18T18:52:12.107Z,34.47
2023-04-18T18:55:16.456Z,33.20
2023-04-18T18:58:19.795Z,33.15
2023-04-18T19:04:40.371Z,29.45
2023-04-18T19:07:43.750Z,28.85
2023-04-18T19:10:47.151Z,29.02
2023-04-18T19:13:52.827Z,26.65
2023-04-18T19:16:56.717Z,21.45
2023-04-18T19:20:02.007Z,15.40
2023-04-18T19:23:05.344Z,14.20
2023-04-18T19:26:09.022Z,13.50
2023-04-18T19:29:15.010Z,13.60
2023-04-18T19:32:18.499Z,15.38
2023-04-18T19:35:21.925Z,14.07
2023-04-18T19:38:25.258Z,15.90
2023-04-18T19:41:28.558Z,14.65
2023-04-18T19:44:33.098Z,15.55
2023-04-18T19:47:37.232Z,17.83
2023-04-18T19:50:41.319Z,17.45
2023-04-18T19:53:44.616Z,15.30
2023-04-18T19:56:47.928Z,15.90
2023-04-18T19:59:51.500Z,16.13
2023-04-18T20:02:55.415Z,15.40
2023-04-18T20:05:59.166Z,14.82
2023-04-18T20:09:02.449Z,15.20
2023-04-18T20:12:05.917Z,16.27
2023-04-18T20:15:09.754Z,17.27
2023-04-18T20:18:13.165Z,16.75
2023-04-18T20:21:16.778Z,16.83
2023-04-18T20:24:21.813Z,16.27
2023-04-18T20:27:25.246Z,17.33
2023-04-18T20:30:28.763Z,17.58
2023-04-18T20:33:32.071Z,20.52
2023-04-18T20:36:36.214Z,19.23
2023-04-18T20:39:40.583Z,18.85
2023-04-18T20:42:43.935Z,17.15
2023-04-18T20:45:52.120Z,19.67
2023-04-18T20:48:55.408Z,19.23
2023-04-18T20:51:58.714Z,20.42
2023-04-18T20:55:02.067Z,20.25
2023-04-18T20:58:05.365Z,18.75
2023-04-18T21:01:08.774Z,18.70
2023-04-18T21:04:12.288Z,20.88
2023-04-18T21:07:15.824Z,19.02
2023-04-18T21:10:19.327Z,19.52
2023-04-18T21:13:22.624Z,19.40
2023-04-18T21:16:26.548Z,18.33
2023-04-18T21:19:29.888Z,19.73
2023-04-18T21:22:33.142Z,19.60
2023-04-18T21:25:36.431Z,18.13
2023-04-18T21:28:59.808Z,20.92
2023-04-18T21:32:03.717Z,17.48
2023-04-18T21:35:07.598Z,16.50
2023-04-18T21:38:10.857Z,14.00
2023-04-18T21:41:17.609Z,12.20
2023-04-18T21:44:21.001Z,13.65
2023-04-18T21:47:24.386Z,13.88
2023-04-18T21:50:27.680Z,11.73
2023-04-18T21:53:31.095Z,11.15
2023-04-18T21:56:34.392Z,9.65
2023-04-18T21:59:37.732Z,9.10
2023-04-18T22:02:41.226Z,13.73
2023-04-18T22:05:44.642Z,8.07
2023-04-18T22:08:48.906Z,7.80
2023-04-18T22:11:52.435Z,9.70
2023-04-18T22:14:57.384Z,9.77
2023-04-18T22:18:01.823Z,9.23
2023-04-18T22:21:05.251Z,9.57
2023-04-18T22:24:09.297Z,11.05
2023-04-18T22:27:12.679Z,11.45
2023-04-18T22:30:16.218Z,13.85
2023-04-18T22:33:19.587Z,11.85
2023-04-18T22:36:22.921Z,12.02
2023-04-18T22:39:26.779Z,10.85
2023-04-18T22:42:30.220Z,8.45
2023-04-18T22:45:35.377Z,10.18
2023-04-18T22:48:39.115Z,10.18
2023-04-18T22:51:42.957Z,11.63
2023-04-18T22:54:46.401Z,10.15
2023-04-18T22:57:49.662Z,10.00
2023-04-18T23:00:52.918Z,8.73
2023-04-18T23:03:56.729Z,10.73
2023-04-18T23:07:00.193Z,8.52
2023-04-18T23:10:07.039Z,12.27
2023-04-18T23:13:10.358Z,8.15
2023-04-18T23:16:13.766Z,9.68
2023-04-18T23:19:17.132Z,9.57
2023-04-18T23:22:21.103Z,8.05
2023-04-18T23:25:24.513Z,7.22
2023-04-18T23:28:27.846Z,5.53
2023-04-18T23:31:33.552Z,3.92
2023-04-18T23:34:36.926Z,12.40
2023-04-18T23:37:40.241Z,12.27
2023-04-18T23:40:43.600Z,11.02
2023-04-18T23:43:46.927Z,11.23
2023-04-18T23:46:50.421Z,11.88
2023-04-18T23:49:53.684Z,10.98
2023-04-18T23:52:57.103Z,11.55
2023-04-18T23:56:00.483Z,11.18
2023-04-18T23:59:03.805Z,11.60
